^^
Daily Summary for July 22, 2021 Units:  Both    English   Metric
Daily Weekly Monthly Yearly Custom
  High: Low: Average:
Temperature: 98.0 °F /  36.7 °C 66.0 °F /  18.9 °C 80.9 °F /  27.2 °C
Dew Point: 45.0 °F /  7.2 °C 26.0 °F /  -3.3 °C 36.7 °F /  2.6 °C
Humidity: 46% 8% 23%
Wind Speed: 18mph /  29km/h - 4mph /  6.4km/h
Wind Gust: 17mph /  27.4km/h - -
Wind- - South
Pressure: 30.0 in /  1015.8 hPa 29.9 in /  1012.4 hPa -
Precipitation: 0.000 in /  0 mm    
Historical Graphs
 
 
Tabular Data for July 22, 2021
Time Temperature Dew Point Pressure Wind Wind Speed Wind Gust Humidity Rainfall Rate (Hourly) solar
00:04 69.0 °F /  20.6 °C 36.0 °F /  2.2 °C 29.9in /  1012.4hPa Calm     30% 0.000in /  0mm 0.00 W/m2
00:09 69.0 °F /  20.6 °C 36.0 °F /  2.2 °C 29.9in /  1012.4hPa Calm     30% 0.000in /  0mm 0.00 W/m2
00:14 69.0 °F /  20.6 °C 37.0 °F /  2.8 °C 29.9in /  1012.4hPa Calm     31% 0.000in /  0mm 0.00 W/m2
00:19 69.0 °F /  20.6 °C 37.0 °F /  2.8 °C 29.9in /  1012.4hPa Calm     32% 0.000in /  0mm 0.00 W/m2
00:24 68.0 °F /  20 °C 38.0 °F /  3.3 °C 29.9in /  1012.4hPa Calm     33% 0.000in /  0mm 0.00 W/m2
00:29 68.0 °F /  20 °C 37.0 °F /  2.8 °C 29.9in /  1012.4hPa Calm     31% 0.000in /  0mm 0.00 W/m2
00:34 68.0 °F /  20 °C 37.0 °F /  2.8 °C 29.9in /  1012.4hPa Calm     32% 0.000in /  0mm 0.00 W/m2
00:39 68.0 °F /  20 °C 36.0 °F /  2.2 °C 29.9in /  1012.4hPa Calm     31% 0.000in /  0mm 0.00 W/m2
00:44 68.0 °F /  20 °C 37.0 °F /  2.8 °C 29.9in /  1012.4hPa Calm     32% 0.000in /  0mm 0.00 W/m2
00:49 68.0 °F /  20 °C 37.0 °F /  2.8 °C 29.9in /  1012.4hPa Calm     32% 0.000in /  0mm 0.00 W/m2
00:54 68.0 °F /  20 °C 36.0 °F /  2.2 °C 29.9in /  1012.4hPa Calm     31% 0.000in /  0mm 0.00 W/m2
00:59 68.0 °F /  20 °C 37.0 °F /  2.8 °C 29.9in /  1012.4hPa Calm     33% 0.000in /  0mm 0.00 W/m2
01:04 68.0 °F /  20 °C 37.0 °F /  2.8 °C 29.9in /  1012.4hPa Calm     33% 0.000in /  0mm 0.00 W/m2
01:09 67.0 °F /  19.4 °C 37.0 °F /  2.8 °C 29.9in /  1012.4hPa Calm     32% 0.000in /  0mm 0.00 W/m2
01:14 67.0 °F /  19.4 °C 36.0 °F /  2.2 °C 29.9in /  1012.4hPa Calm     32% 0.000in /  0mm 0.00 W/m2
01:19 67.0 °F /  19.4 °C 36.0 °F /  2.2 °C 29.9in /  1012.4hPa Calm     32% 0.000in /  0mm 0.00 W/m2
01:24 67.0 °F /  19.4 °C 37.0 °F /  2.8 °C 29.9in /  1012.4hPa Calm     33% 0.000in /  0mm 0.00 W/m2
01:29 67.0 °F /  19.4 °C 37.0 °F /  2.8 °C 29.9in /  1012.4hPa Calm     33% 0.000in /  0mm 0.00 W/m2
01:34 67.0 °F /  19.4 °C 36.0 °F /  2.2 °C 29.9in /  1012.4hPa Calm     32% 0.000in /  0mm 0.00 W/m2
01:39 67.0 °F /  19.4 °C 37.0 °F /  2.8 °C 29.9in /  1012.4hPa Calm     33% 0.000in /  0mm 0.00 W/m2
01:44 67.0 °F /  19.4 °C 38.0 °F /  3.3 °C 29.9in /  1012.4hPa Calm     35% 0.000in /  0mm 0.00 W/m2
01:49 67.0 °F /  19.4 °C 38.0 °F /  3.3 °C 29.9in /  1012.4hPa Calm     35% 0.000in /  0mm 0.00 W/m2
01:54 67.0 °F /  19.4 °C 38.0 °F /  3.3 °C 29.9in /  1012.4hPa Calm     34% 0.000in /  0mm 0.00 W/m2
01:59 67.0 °F /  19.4 °C 38.0 °F /  3.3 °C 29.9in /  1012.4hPa Calm     34% 0.000in /  0mm 0.00 W/m2
02:04 67.0 °F /  19.4 °C 38.0 °F /  3.3 °C 29.9in /  1012.4hPa Calm     34% 0.000in /  0mm 0.00 W/m2
02:09 67.0 °F /  19.4 °C 37.0 °F /  2.8 °C 29.9in /  1012.4hPa Calm     33% 0.000in /  0mm 0.00 W/m2
02:14 67.0 °F /  19.4 °C 37.0 °F /  2.8 °C 29.9in /  1012.4hPa Calm     33% 0.000in /  0mm 0.00 W/m2
02:19 67.0 °F /  19.4 °C 36.0 °F /  2.2 °C 29.9in /  1012.4hPa Calm     32% 0.000in /  0mm 0.00 W/m2
02:24 67.0 °F /  19.4 °C 37.0 °F /  2.8 °C 29.9in /  1012.4hPa Calm     33% 0.000in /  0mm 0.00 W/m2
02:29 67.0 °F /  19.4 °C 37.0 °F /  2.8 °C 29.9in /  1012.4hPa Calm     33% 0.000in /  0mm 0.00 W/m2
02:34 67.0 °F /  19.4 °C 37.0 °F /  2.8 °C 29.9in /  1012.4hPa Calm     33% 0.000in /  0mm 0.00 W/m2
02:39 67.0 °F /  19.4 °C 38.0 °F /  3.3 °C 29.9in /  1012.4hPa Calm     34% 0.000in /  0mm 0.00 W/m2
02:44 67.0 °F /  19.4 °C 36.0 °F /  2.2 °C 29.9in /  1012.4hPa Calm     32% 0.000in /  0mm 0.00 W/m2
02:49 67.0 °F /  19.4 °C 36.0 °F /  2.2 °C 29.9in /  1012.4hPa Calm     31% 0.000in /  0mm 0.00 W/m2
02:54 67.0 °F /  19.4 °C 36.0 °F /  2.2 °C 29.9in /  1012.4hPa Calm     31% 0.000in /  0mm 0.00 W/m2
02:59 67.0 °F /  19.4 °C 35.0 °F /  1.7 °C 29.9in /  1012.4hPa Calm     30% 0.000in /  0mm 0.00 W/m2
03:04 67.0 °F /  19.4 °C 36.0 °F /  2.2 °C 29.9in /  1012.4hPa Calm     32% 0.000in /  0mm 0.00 W/m2
03:09 67.0 °F /  19.4 °C 36.0 °F /  2.2 °C 29.9in /  1012.4hPa Calm     31% 0.000in /  0mm 0.00 W/m2
03:14 67.0 °F /  19.4 °C 35.0 °F /  1.7 °C 29.9in /  1012.4hPa Calm     31% 0.000in /  0mm 0.00 W/m2
03:19 67.0 °F /  19.4 °C 35.0 °F /  1.7 °C 29.9in /  1012.4hPa Calm     31% 0.000in /  0mm 0.00 W/m2
03:24 67.0 °F /  19.4 °C 35.0 °F /  1.7 °C 29.9in /  1012.4hPa SSW 2mph /  3.2km/h   31% 0.000in /  0mm 0.00 W/m2
03:29 67.0 °F /  19.4 °C 37.0 °F /  2.8 °C 29.9in /  1012.4hPa SSW 2mph /  3.2km/h 2mph /  3.2km/h 33% 0.000in /  0mm 0.00 W/m2
03:34 67.0 °F /  19.4 °C 36.0 °F /  2.2 °C 29.9in /  1012.4hPa SSE 2mph /  3.2km/h 2mph /  3.2km/h 32% 0.000in /  0mm 0.00 W/m2
03:39 67.0 °F /  19.4 °C 36.0 °F /  2.2 °C 29.9in /  1012.4hPa Calm   2mph /  3.2km/h 32% 0.000in /  0mm 0.00 W/m2
03:44 67.0 °F /  19.4 °C 36.0 °F /  2.2 °C 29.9in /  1012.4hPa Calm     32% 0.000in /  0mm 0.00 W/m2
03:49 67.0 °F /  19.4 °C 36.0 °F /  2.2 °C 29.9in /  1012.4hPa Calm     32% 0.000in /  0mm 0.00 W/m2
03:54 67.0 °F /  19.4 °C 36.0 °F /  2.2 °C 29.9in /  1012.4hPa Calm     32% 0.000in /  0mm 0.00 W/m2
03:59 67.0 °F /  19.4 °C 36.0 °F /  2.2 °C 29.9in /  1012.4hPa Calm     32% 0.000in /  0mm 0.00 W/m2
04:04 67.0 °F /  19.4 °C 37.0 °F /  2.8 °C 29.9in /  1012.4hPa Calm     33% 0.000in /  0mm 0.00 W/m2
04:09 67.0 °F /  19.4 °C 36.0 °F /  2.2 °C 29.9in /  1012.4hPa Calm     32% 0.000in /  0mm 0.00 W/m2
04:14 67.0 °F /  19.4 °C 38.0 °F /  3.3 °C 29.9in /  1012.4hPa Calm     34% 0.000in /  0mm 0.00 W/m2
04:19 67.0 °F /  19.4 °C 37.0 °F /  2.8 °C 29.9in /  1012.4hPa Calm     33% 0.000in /  0mm 0.00 W/m2
04:24 67.0 °F /  19.4 °C 38.0 °F /  3.3 °C 29.9in /  1012.4hPa Calm     35% 0.000in /  0mm 0.00 W/m2
04:29 67.0 °F /  19.4 °C 38.0 °F /  3.3 °C 29.9in /  1012.4hPa Calm     35% 0.000in /  0mm 0.00 W/m2
04:34 67.0 °F /  19.4 °C 37.0 °F /  2.8 °C 29.9in /  1012.4hPa Calm     33% 0.000in /  0mm 0.00 W/m2
04:39 67.0 °F /  19.4 °C 37.0 °F /  2.8 °C 29.9in /  1012.4hPa Calm     33% 0.000in /  0mm 0.00 W/m2
04:44 67.0 °F /  19.4 °C 37.0 °F /  2.8 °C 29.9in /  1012.4hPa Calm     33% 0.000in /  0mm 0.00 W/m2
04:49 67.0 °F /  19.4 °C 37.0 °F /  2.8 °C 29.9in /  1012.4hPa Calm     33% 0.000in /  0mm 0.00 W/m2
04:54 67.0 °F /  19.4 °C 36.0 °F /  2.2 °C 29.9in /  1012.4hPa Calm     32% 0.000in /  0mm 0.00 W/m2
04:59 67.0 °F /  19.4 °C 37.0 °F /  2.8 °C 29.9in /  1012.4hPa Calm     33% 0.000in /  0mm 0.00 W/m2
05:04 67.0 °F /  19.4 °C 37.0 °F /  2.8 °C 29.9in /  1012.4hPa SE 4mph /  6.4km/h 1mph /  1.6km/h 33% 0.000in /  0mm 0.00 W/m2
05:09 66.0 °F /  18.9 °C 36.0 °F /  2.2 °C 29.9in /  1012.4hPa Calm   3mph /  4.8km/h 32% 0.000in /  0mm 0.00 W/m2
05:14 66.0 °F /  18.9 °C 36.0 °F /  2.2 °C 29.9in /  1012.4hPa Calm     32% 0.000in /  0mm 0.00 W/m2
05:19 66.0 °F /  18.9 °C 36.0 °F /  2.2 °C 29.9in /  1012.4hPa SE 2mph /  3.2km/h   33% 0.000in /  0mm 0.00 W/m2
05:24 66.0 °F /  18.9 °C 36.0 °F /  2.2 °C 29.9in /  1012.4hPa SE 2mph /  3.2km/h 2mph /  3.2km/h 32% 0.000in /  0mm 0.00 W/m2
05:29 66.0 °F /  18.9 °C 38.0 °F /  3.3 °C 29.9in /  1012.4hPa Calm     35% 0.000in /  0mm 0.00 W/m2
05:34 66.0 °F /  18.9 °C 38.0 °F /  3.3 °C 29.9in /  1012.4hPa Calm     35% 0.000in /  0mm 0.00 W/m2
05:39 66.0 °F /  18.9 °C 36.0 °F /  2.2 °C 29.9in /  1012.4hPa Calm     33% 0.000in /  0mm 0.00 W/m2
05:44 66.0 °F /  18.9 °C 37.0 °F /  2.8 °C 29.9in /  1012.4hPa Calm     34% 0.000in /  0mm 0.00 W/m2
05:49 66.0 °F /  18.9 °C 38.0 °F /  3.3 °C 29.9in /  1012.4hPa Calm     35% 0.000in /  0mm 0.00 W/m2
05:54 66.0 °F /  18.9 °C 38.0 °F /  3.3 °C 29.9in /  1012.4hPa Calm     35% 0.000in /  0mm 0.00 W/m2
05:59 66.0 °F /  18.9 °C 38.0 °F /  3.3 °C 29.9in /  1012.4hPa Calm     35% 0.000in /  0mm 0.00 W/m2
06:04 66.0 °F /  18.9 °C 37.0 °F /  2.8 °C 29.9in /  1012.4hPa Calm     34% 0.000in /  0mm 0.00 W/m2
06:09 66.0 °F /  18.9 °C 37.0 °F /  2.8 °C 29.9in /  1012.4hPa Calm     34% 0.000in /  0mm 5.00 W/m2
06:14 66.0 °F /  18.9 °C 38.0 °F /  3.3 °C 29.9in /  1012.4hPa Calm     35% 0.000in /  0mm 5.00 W/m2
06:19 66.0 °F /  18.9 °C 38.0 °F /  3.3 °C 29.9in /  1012.4hPa Calm     35% 0.000in /  0mm 7.00 W/m2
06:24 66.0 °F /  18.9 °C 38.0 °F /  3.3 °C 29.9in /  1012.4hPa Calm     35% 0.000in /  0mm 7.00 W/m2
06:29 66.0 °F /  18.9 °C 38.0 °F /  3.3 °C 29.9in /  1012.4hPa Calm     35% 0.000in /  0mm 9.00 W/m2
06:34 66.0 °F /  18.9 °C 39.0 °F /  3.9 °C 29.9in /  1012.4hPa Calm     37% 0.000in /  0mm 9.00 W/m2
06:39 66.0 °F /  18.9 °C 39.0 °F /  3.9 °C 29.9in /  1012.4hPa Calm     37% 0.000in /  0mm 11.00 W/m2
06:44 66.0 °F /  18.9 °C 37.0 °F /  2.8 °C 29.9in /  1012.4hPa Calm     35% 0.000in /  0mm 11.00 W/m2
06:49 66.0 °F /  18.9 °C 38.0 °F /  3.3 °C 29.9in /  1012.4hPa Calm     36% 0.000in /  0mm 12.00 W/m2
06:54 66.0 °F /  18.9 °C 39.0 °F /  3.9 °C 29.9in /  1012.4hPa Calm     37% 0.000in /  0mm 14.00 W/m2
06:59 66.0 °F /  18.9 °C 39.0 °F /  3.9 °C 29.9in /  1012.4hPa Calm     37% 0.000in /  0mm 14.00 W/m2
07:04 66.0 °F /  18.9 °C 38.0 °F /  3.3 °C 29.9in /  1012.4hPa Calm     36% 0.000in /  0mm 16.00 W/m2
07:09 66.0 °F /  18.9 °C 39.0 °F /  3.9 °C 29.9in /  1012.4hPa Calm     37% 0.000in /  0mm 16.00 W/m2
07:14 66.0 °F /  18.9 °C 39.0 °F /  3.9 °C 29.9in /  1012.4hPa Calm     37% 0.000in /  0mm 18.00 W/m2
07:19 66.0 °F /  18.9 °C 39.0 °F /  3.9 °C 29.9in /  1012.4hPa Calm     38% 0.000in /  0mm 18.00 W/m2
07:24 66.0 °F /  18.9 °C 39.0 °F /  3.9 °C 29.9in /  1012.4hPa Calm     38% 0.000in /  0mm 19.00 W/m2
07:29 66.0 °F /  18.9 °C 40.0 °F /  4.4 °C 29.9in /  1012.4hPa Calm     39% 0.000in /  0mm 19.00 W/m2
07:34 66.0 °F /  18.9 °C 41.0 °F /  5 °C 29.9in /  1012.4hPa Calm     40% 0.000in /  0mm 21.00 W/m2
07:39 66.0 °F /  18.9 °C 41.0 °F /  5 °C 29.9in /  1012.4hPa Calm     40% 0.000in /  0mm 21.00 W/m2
07:44 66.0 °F /  18.9 °C 41.0 °F /  5 °C 29.9in /  1012.4hPa Calm     40% 0.000in /  0mm 23.00 W/m2
07:49 66.0 °F /  18.9 °C 42.0 °F /  5.6 °C 29.9in /  1012.4hPa Calm     42% 0.000in /  0mm 25.00 W/m2
07:54 66.0 °F /  18.9 °C 43.0 °F /  6.1 °C 29.9in /  1012.4hPa Calm     44% 0.000in /  0mm 26.00 W/m2
07:59 66.0 °F /  18.9 °C 43.0 °F /  6.1 °C 29.9in /  1012.4hPa Calm     44% 0.000in /  0mm 26.00 W/m2
08:04 66.0 °F /  18.9 °C 44.0 °F /  6.7 °C 30.0in /  1015.8hPa Calm     45% 0.000in /  0mm 39.00 W/m2
08:09 66.0 °F /  18.9 °C 44.0 °F /  6.7 °C 30.0in /  1015.8hPa Calm     45% 0.000in /  0mm 42.00 W/m2
08:14 67.0 °F /  19.4 °C 45.0 °F /  7.2 °C 30.0in /  1015.8hPa Calm     46% 0.000in /  0mm 42.00 W/m2
08:19 68.0 °F /  20 °C 44.0 °F /  6.7 °C 30.0in /  1015.8hPa Calm     42% 0.000in /  0mm 56.00 W/m2
08:24 69.0 °F /  20.6 °C 44.0 °F /  6.7 °C 30.0in /  1015.8hPa Calm     41% 0.000in /  0mm 165.00 W/m2
08:29 69.0 °F /  20.6 °C 43.0 °F /  6.1 °C 30.0in /  1015.8hPa Calm     40% 0.000in /  0mm 86.00 W/m2
08:34 70.0 °F /  21.1 °C 44.0 °F /  6.7 °C 30.0in /  1015.8hPa Calm     40% 0.000in /  0mm 345.00 W/m2
08:39 71.0 °F /  21.7 °C 43.0 °F /  6.1 °C 30.0in /  1015.8hPa Calm     37% 0.000in /  0mm 490.00 W/m2
08:44 72.0 °F /  22.2 °C 42.0 °F /  5.6 °C 30.0in /  1015.8hPa Calm     35% 0.000in /  0mm 508.00 W/m2
08:49 73.0 °F /  22.8 °C 42.0 °F /  5.6 °C 30.0in /  1015.8hPa Calm     33% 0.000in /  0mm 526.00 W/m2
08:54 73.0 °F /  22.8 °C 42.0 °F /  5.6 °C 30.0in /  1015.8hPa SE 2mph /  3.2km/h   33% 0.000in /  0mm 540.00 W/m2
08:59 74.0 °F /  23.3 °C 42.0 °F /  5.6 °C 30.0in /  1015.8hPa SE 2mph /  3.2km/h 2mph /  3.2km/h 33% 0.000in /  0mm 559.00 W/m2
09:04 75.0 °F /  23.9 °C 38.0 °F /  3.3 °C 30.0in /  1015.8hPa SW 4mph /  6.4km/h 2mph /  3.2km/h 27% 0.000in /  0mm 575.00 W/m2
09:09 76.0 °F /  24.4 °C 39.0 °F /  3.9 °C 30.0in /  1015.8hPa SW 2mph /  3.2km/h 3mph /  4.8km/h 27% 0.000in /  0mm 594.00 W/m2
09:14 77.0 °F /  25 °C 37.0 °F /  2.8 °C 30.0in /  1015.8hPa South 2mph /  3.2km/h 2mph /  3.2km/h 24% 0.000in /  0mm 606.00 W/m2
09:19 78.0 °F /  25.6 °C 36.0 °F /  2.2 °C 30.0in /  1015.8hPa SSE 2mph /  3.2km/h 2mph /  3.2km/h 22% 0.000in /  0mm 621.00 W/m2
09:24 79.0 °F /  26.1 °C 41.0 °F /  5 °C 30.0in /  1015.8hPa SSE 2mph /  3.2km/h 2mph /  3.2km/h 26% 0.000in /  0mm 633.00 W/m2
09:29 81.0 °F /  27.2 °C 41.0 °F /  5 °C 30.0in /  1015.8hPa SSW 4mph /  6.4km/h 2mph /  3.2km/h 26% 0.000in /  0mm 647.00 W/m2
09:34 82.0 °F /  27.8 °C 41.0 °F /  5 °C 30.0in /  1015.8hPa WSW 2mph /  3.2km/h 3mph /  4.8km/h 24% 0.000in /  0mm 659.00 W/m2
09:39 82.0 °F /  27.8 °C 41.0 °F /  5 °C 30.0in /  1015.8hPa SSW 4mph /  6.4km/h 2mph /  3.2km/h 24% 0.000in /  0mm 677.00 W/m2
09:44 83.0 °F /  28.3 °C 40.0 °F /  4.4 °C 30.0in /  1015.8hPa SW 2mph /  3.2km/h 3mph /  4.8km/h 22% 0.000in /  0mm 689.00 W/m2
09:49 84.0 °F /  28.9 °C 39.0 °F /  3.9 °C 30.0in /  1015.8hPa SW 4mph /  6.4km/h 2mph /  3.2km/h 21% 0.000in /  0mm 705.00 W/m2
09:54 84.0 °F /  28.9 °C 38.0 °F /  3.3 °C 30.0in /  1015.8hPa SW 4mph /  6.4km/h 3mph /  4.8km/h 20% 0.000in /  0mm 717.00 W/m2
09:59 84.0 °F /  28.9 °C 39.0 °F /  3.9 °C 30.0in /  1015.8hPa SSW 2mph /  3.2km/h 3mph /  4.8km/h 20% 0.000in /  0mm 731.00 W/m2
10:04 85.0 °F /  29.4 °C 38.0 °F /  3.3 °C 30.0in /  1015.8hPa WSW 2mph /  3.2km/h 2mph /  3.2km/h 19% 0.000in /  0mm 742.00 W/m2
10:09 85.0 °F /  29.4 °C 38.0 °F /  3.3 °C 30.0in /  1015.8hPa WNW 6mph /  9.7km/h 2mph /  3.2km/h 19% 0.000in /  0mm 756.00 W/m2
10:14 85.0 °F /  29.4 °C 38.0 °F /  3.3 °C 30.0in /  1015.8hPa South 6mph /  9.7km/h 6mph /  9.7km/h 19% 0.000in /  0mm 765.00 W/m2
10:19 85.0 °F /  29.4 °C 40.0 °F /  4.4 °C 30.0in /  1015.8hPa ENE 2mph /  3.2km/h 6mph /  9.7km/h 20% 0.000in /  0mm 779.00 W/m2
10:24 86.0 °F /  30 °C 39.0 °F /  3.9 °C 30.0in /  1015.8hPa SSW 2mph /  3.2km/h 2mph /  3.2km/h 19% 0.000in /  0mm 789.00 W/m2
10:29 86.0 °F /  30 °C 39.0 °F /  3.9 °C 30.0in /  1015.8hPa SW 4mph /  6.4km/h 2mph /  3.2km/h 19% 0.000in /  0mm 802.00 W/m2
10:34 86.0 °F /  30 °C 39.0 °F /  3.9 °C 30.0in /  1015.8hPa SSW 7mph /  11.3km/h 3mph /  4.8km/h 19% 0.000in /  0mm 814.00 W/m2
10:39 86.0 °F /  30 °C 39.0 °F /  3.9 °C 30.0in /  1015.8hPa SW 6mph /  9.7km/h 7mph /  11.3km/h 19% 0.000in /  0mm 821.00 W/m2
10:44 86.0 °F /  30 °C 38.0 °F /  3.3 °C 30.0in /  1015.8hPa SSW 4mph /  6.4km/h 6mph /  9.7km/h 18% 0.000in /  0mm 837.00 W/m2
10:49 87.0 °F /  30.6 °C 38.0 °F /  3.3 °C 30.0in /  1015.8hPa South 7mph /  11.3km/h 3mph /  4.8km/h 18% 0.000in /  0mm 846.00 W/m2
10:54 87.0 °F /  30.6 °C 37.0 °F /  2.8 °C 30.0in /  1015.8hPa SW 6mph /  9.7km/h 7mph /  11.3km/h 17% 0.000in /  0mm 856.00 W/m2
10:59 87.0 °F /  30.6 °C 35.0 °F /  1.7 °C 30.0in /  1015.8hPa WSW 6mph /  9.7km/h 6mph /  9.7km/h 16% 0.000in /  0mm 865.00 W/m2
11:04 87.0 °F /  30.6 °C 34.0 °F /  1.1 °C 30.0in /  1015.8hPa SW 9mph /  14.5km/h 6mph /  9.7km/h 15% 0.000in /  0mm 875.00 W/m2
11:09 87.0 °F /  30.6 °C 37.0 °F /  2.8 °C 30.0in /  1015.8hPa SSW 6mph /  9.7km/h 9mph /  14.5km/h 17% 0.000in /  0mm 882.00 W/m2
11:14 87.0 °F /  30.6 °C 41.0 °F /  5 °C 30.0in /  1015.8hPa WSW 6mph /  9.7km/h 6mph /  9.7km/h 20% 0.000in /  0mm 889.00 W/m2
11:19 88.0 °F /  31.1 °C 39.0 °F /  3.9 °C 30.0in /  1015.8hPa South 7mph /  11.3km/h 6mph /  9.7km/h 18% 0.000in /  0mm 896.00 W/m2
11:24 88.0 °F /  31.1 °C 39.0 °F /  3.9 °C 30.0in /  1015.8hPa WSW 9mph /  14.5km/h 7mph /  11.3km/h 18% 0.000in /  0mm 904.00 W/m2
11:29 88.0 °F /  31.1 °C 41.0 °F /  5 °C 30.0in /  1015.8hPa WSW 4mph /  6.4km/h 9mph /  14.5km/h 19% 0.000in /  0mm 912.00 W/m2
11:34 88.0 °F /  31.1 °C 39.0 °F /  3.9 °C 30.0in /  1015.8hPa SSW 11mph /  17.7km/h 7mph /  11.3km/h 18% 0.000in /  0mm 919.00 W/m2
11:39 89.0 °F /  31.7 °C 40.0 °F /  4.4 °C 30.0in /  1015.8hPa SW 13mph /  20.9km/h 10mph /  16.1km/h 18% 0.000in /  0mm 925.00 W/m2
11:44 89.0 °F /  31.7 °C 40.0 °F /  4.4 °C 30.0in /  1015.8hPa SW 9mph /  14.5km/h 13mph /  20.9km/h 18% 0.000in /  0mm 928.00 W/m2
11:49 89.0 °F /  31.7 °C 41.0 °F /  5 °C 30.0in /  1015.8hPa SW 7mph /  11.3km/h 9mph /  14.5km/h 19% 0.000in /  0mm 933.00 W/m2
11:54 89.0 °F /  31.7 °C 41.0 °F /  5 °C 30.0in /  1015.8hPa SSW 13mph /  20.9km/h 7mph /  11.3km/h 19% 0.000in /  0mm 942.00 W/m2
11:59 89.0 °F /  31.7 °C 42.0 °F /  5.6 °C 30.0in /  1015.8hPa SW 7mph /  11.3km/h 13mph /  20.9km/h 19% 0.000in /  0mm 946.00 W/m2
12:04 90.0 °F /  32.2 °C 42.0 °F /  5.6 °C 30.0in /  1015.8hPa East 6mph /  9.7km/h 6mph /  9.7km/h 19% 0.000in /  0mm 949.00 W/m2
12:09 90.0 °F /  32.2 °C 41.0 °F /  5 °C 30.0in /  1015.8hPa WNW 9mph /  14.5km/h 6mph /  9.7km/h 18% 0.000in /  0mm 953.00 W/m2
12:14 90.0 °F /  32.2 °C 41.0 °F /  5 °C 30.0in /  1015.8hPa SSW 7mph /  11.3km/h 9mph /  14.5km/h 18% 0.000in /  0mm 956.00 W/m2
12:19 91.0 °F /  32.8 °C 38.0 °F /  3.3 °C 30.0in /  1015.8hPa South 7mph /  11.3km/h 7mph /  11.3km/h 16% 0.000in /  0mm 963.00 W/m2
12:24 91.0 °F /  32.8 °C 39.0 °F /  3.9 °C 30.0in /  1015.8hPa SW 7mph /  11.3km/h 7mph /  11.3km/h 16% 0.000in /  0mm 963.00 W/m2
12:29 91.0 °F /  32.8 °C 37.0 °F /  2.8 °C 30.0in /  1015.8hPa SW 9mph /  14.5km/h 7mph /  11.3km/h 15% 0.000in /  0mm 963.00 W/m2
12:34 91.0 °F /  32.8 °C 37.0 °F /  2.8 °C 30.0in /  1015.8hPa WSW 9mph /  14.5km/h 9mph /  14.5km/h 15% 0.000in /  0mm 963.00 W/m2
12:39 91.0 °F /  32.8 °C 39.0 °F /  3.9 °C 30.0in /  1015.8hPa SSE 6mph /  9.7km/h 9mph /  14.5km/h 16% 0.000in /  0mm 969.00 W/m2
12:44 91.0 °F /  32.8 °C 36.0 °F /  2.2 °C 30.0in /  1015.8hPa WSW 18mph /  29km/h 10mph /  16.1km/h 14% 0.000in /  0mm 969.00 W/m2
12:49 92.0 °F /  33.3 °C 37.0 °F /  2.8 °C 30.0in /  1015.8hPa SSW 6mph /  9.7km/h 17mph /  27.4km/h 15% 0.000in /  0mm 969.00 W/m2
12:54 92.0 °F /  33.3 °C 38.0 °F /  3.3 °C 30.0in /  1015.8hPa South 9mph /  14.5km/h 4mph /  6.4km/h 15% 0.000in /  0mm 972.00 W/m2
12:59 93.0 °F /  33.9 °C 38.0 °F /  3.3 °C 30.0in /  1015.8hPa West 7mph /  11.3km/h 9mph /  14.5km/h 15% 0.000in /  0mm 972.00 W/m2
13:04 93.0 °F /  33.9 °C 38.0 °F /  3.3 °C 30.0in /  1015.8hPa SE 9mph /  14.5km/h 7mph /  11.3km/h 15% 0.000in /  0mm 974.00 W/m2
13:09 93.0 °F /  33.9 °C 35.0 °F /  1.7 °C 30.0in /  1015.8hPa ENE 11mph /  17.7km/h 9mph /  14.5km/h 13% 0.000in /  0mm 972.00 W/m2
13:14 94.0 °F /  34.4 °C 35.0 °F /  1.7 °C 30.0in /  1015.8hPa ENE 6mph /  9.7km/h 10mph /  16.1km/h 13% 0.000in /  0mm 969.00 W/m2
13:19 94.0 °F /  34.4 °C 36.0 °F /  2.2 °C 30.0in /  1015.8hPa South 14mph /  22.5km/h 5mph /  8km/h 13% 0.000in /  0mm 969.00 W/m2
13:24 94.0 °F /  34.4 °C 34.0 °F /  1.1 °C 30.0in /  1015.8hPa SSW 18mph /  29km/h 14mph /  22.5km/h 12% 0.000in /  0mm 967.00 W/m2
13:29 94.0 °F /  34.4 °C 33.0 °F /  0.6 °C 30.0in /  1015.8hPa SSW 18mph /  29km/h 17mph /  27.4km/h 12% 0.000in /  0mm 962.00 W/m2
13:34 94.0 °F /  34.4 °C 33.0 °F /  0.6 °C 30.0in /  1015.8hPa SW 16mph /  25.7km/h 17mph /  27.4km/h 12% 0.000in /  0mm 958.00 W/m2
13:39 94.0 °F /  34.4 °C 33.0 °F /  0.6 °C 30.0in /  1015.8hPa South 16mph /  25.7km/h 16mph /  25.7km/h 12% 0.000in /  0mm 956.00 W/m2
13:44 94.0 °F /  34.4 °C 37.0 °F /  2.8 °C 30.0in /  1015.8hPa ESE 6mph /  9.7km/h 13mph /  20.9km/h 14% 0.000in /  0mm 953.00 W/m2
13:49 94.0 °F /  34.4 °C 35.0 °F /  1.7 °C 30.0in /  1015.8hPa SW 13mph /  20.9km/h 6mph /  9.7km/h 13% 0.000in /  0mm 949.00 W/m2
13:54 94.0 °F /  34.4 °C 39.0 °F /  3.9 °C 30.0in /  1015.8hPa East 11mph /  17.7km/h 13mph /  20.9km/h 15% 0.000in /  0mm 947.00 W/m2
13:59 95.0 °F /  35 °C 36.0 °F /  2.2 °C 30.0in /  1015.8hPa SSW 11mph /  17.7km/h 10mph /  16.1km/h 13% 0.000in /  0mm 946.00 W/m2
14:04 95.0 °F /  35 °C 32.0 °F /  0 °C 30.0in /  1015.8hPa SSW 13mph /  20.9km/h 10mph /  16.1km/h 11% 0.000in /  0mm 940.00 W/m2
14:09 95.0 °F /  35 °C 30.0 °F /  -1.1 °C 30.0in /  1015.8hPa SW 7mph /  11.3km/h 13mph /  20.9km/h 10% 0.000in /  0mm 935.00 W/m2
14:14 95.0 °F /  35 °C 34.0 °F /  1.1 °C 30.0in /  1015.8hPa ENE 6mph /  9.7km/h 7mph /  11.3km/h 12% 0.000in /  0mm 930.00 W/m2
14:19 95.0 °F /  35 °C 32.0 °F /  0 °C 30.0in /  1015.8hPa SSW 18mph /  29km/h 10mph /  16.1km/h 11% 0.000in /  0mm 923.00 W/m2
14:24 96.0 °F /  35.6 °C 33.0 °F /  0.6 °C 30.0in /  1015.8hPa SSW 14mph /  22.5km/h 17mph /  27.4km/h 11% 0.000in /  0mm 916.00 W/m2
14:29 96.0 °F /  35.6 °C 31.0 °F /  -0.6 °C 30.0in /  1015.8hPa SSW 12mph /  19.3km/h 14mph /  22.5km/h 10% 0.000in /  0mm 909.00 W/m2
14:34 96.0 °F /  35.6 °C 31.0 °F /  -0.6 °C 30.0in /  1015.8hPa SSW 13mph /  20.9km/h 13mph /  20.9km/h 10% 0.000in /  0mm 902.00 W/m2
14:39 96.0 °F /  35.6 °C 31.0 °F /  -0.6 °C 30.0in /  1015.8hPa NNW 6mph /  9.7km/h 7mph /  11.3km/h 10% 0.000in /  0mm 895.00 W/m2
14:44 96.0 °F /  35.6 °C 28.0 °F /  -2.2 °C 30.0in /  1015.8hPa SE 13mph /  20.9km/h 6mph /  9.7km/h 9% 0.000in /  0mm 889.00 W/m2
14:49 96.0 °F /  35.6 °C 28.0 °F /  -2.2 °C 30.0in /  1015.8hPa SW 9mph /  14.5km/h 13mph /  20.9km/h 9% 0.000in /  0mm 879.00 W/m2
14:54 97.0 °F /  36.1 °C 33.0 °F /  0.6 °C 30.0in /  1015.8hPa South 9mph /  14.5km/h 9mph /  14.5km/h 11% 0.000in /  0mm 865.00 W/m2
14:59 97.0 °F /  36.1 °C 33.0 °F /  0.6 °C 30.0in /  1015.8hPa WSW 6mph /  9.7km/h 7mph /  11.3km/h 11% 0.000in /  0mm 856.00 W/m2
15:04 97.0 °F /  36.1 °C 29.0 °F /  -1.7 °C 30.0in /  1015.8hPa SSW 9mph /  14.5km/h 9mph /  14.5km/h 9% 0.000in /  0mm 846.00 W/m2
15:09 97.0 °F /  36.1 °C 29.0 °F /  -1.7 °C 30.0in /  1015.8hPa WSW 7mph /  11.3km/h 6mph /  9.7km/h 9% 0.000in /  0mm 835.00 W/m2
15:14 97.0 °F /  36.1 °C 29.0 °F /  -1.7 °C 30.0in /  1015.8hPa SSW 9mph /  14.5km/h 8mph /  12.9km/h 9% 0.000in /  0mm 828.00 W/m2
15:19 97.0 °F /  36.1 °C 31.0 °F /  -0.6 °C 30.0in /  1015.8hPa SSE 4mph /  6.4km/h 9mph /  14.5km/h 10% 0.000in /  0mm 814.00 W/m2
15:24 97.0 °F /  36.1 °C 29.0 °F /  -1.7 °C 30.0in /  1015.8hPa SW 11mph /  17.7km/h 7mph /  11.3km/h 9% 0.000in /  0mm 807.00 W/m2
15:29 98.0 °F /  36.7 °C 26.0 °F /  -3.3 °C 30.0in /  1015.8hPa SW 7mph /  11.3km/h 10mph /  16.1km/h 8% 0.000in /  0mm 795.00 W/m2
15:34 97.0 °F /  36.1 °C 26.0 °F /  -3.3 °C 30.0in /  1015.8hPa East 7mph /  11.3km/h 7mph /  11.3km/h 8% 0.000in /  0mm 782.00 W/m2
15:39 97.0 °F /  36.1 °C 29.0 °F /  -1.7 °C 30.0in /  1015.8hPa SSW 12mph /  19.3km/h 7mph /  11.3km/h 9% 0.000in /  0mm 768.00 W/m2
15:44 97.0 °F /  36.1 °C 32.0 °F /  0 °C 30.0in /  1015.8hPa SSW 13mph /  20.9km/h 13mph /  20.9km/h 10% 0.000in /  0mm 752.00 W/m2
15:49 97.0 °F /  36.1 °C 32.0 °F /  0 °C 30.0in /  1015.8hPa SW 7mph /  11.3km/h 7mph /  11.3km/h 10% 0.000in /  0mm 740.00 W/m2
15:53 98.0 °F /  36.7 °C 29.0 °F /  -1.7 °C 30.0in /  1015.8hPa SSE 9mph /  14.5km/h 8mph /  12.9km/h 9% 0.000in /  0mm 729.00 W/m2
15:59 97.0 °F /  36.1 °C 32.0 °F /  0 °C 30.0in /  1015.8hPa SSW 6mph /  9.7km/h 9mph /  14.5km/h 10% 0.000in /  0mm 721.00 W/m2
16:04 98.0 °F /  36.7 °C 34.0 °F /  1.1 °C 30.0in /  1015.8hPa SSW 7mph /  11.3km/h 6mph /  9.7km/h 11% 0.000in /  0mm 701.00 W/m2
16:09 98.0 °F /  36.7 °C 34.0 °F /  1.1 °C 30.0in /  1015.8hPa SSE 9mph /  14.5km/h 7mph /  11.3km/h 11% 0.000in /  0mm 687.00 W/m2
16:14 98.0 °F /  36.7 °C 37.0 °F /  2.8 °C 30.0in /  1015.8hPa SE 9mph /  14.5km/h 9mph /  14.5km/h 12% 0.000in /  0mm 677.00 W/m2
16:19 98.0 °F /  36.7 °C 32.0 °F /  0 °C 30.0in /  1015.8hPa SE 6mph /  9.7km/h 9mph /  14.5km/h 10% 0.000in /  0mm 668.00 W/m2
16:24 98.0 °F /  36.7 °C 32.0 °F /  0 °C 29.9in /  1012.4hPa WSW 7mph /  11.3km/h 6mph /  9.7km/h 10% 0.000in /  0mm 652.00 W/m2
16:29 98.0 °F /  36.7 °C 32.0 °F /  0 °C 30.0in /  1015.8hPa SSW 11mph /  17.7km/h 10mph /  16.1km/h 10% 0.000in /  0mm 638.00 W/m2
16:34 98.0 °F /  36.7 °C 32.0 °F /  0 °C 29.9in /  1012.4hPa SSW 4mph /  6.4km/h 10mph /  16.1km/h 10% 0.000in /  0mm 621.00 W/m2
16:39 98.0 °F /  36.7 °C 32.0 °F /  0 °C 29.9in /  1012.4hPa SE 4mph /  6.4km/h 3mph /  4.8km/h 10% 0.000in /  0mm 605.00 W/m2
16:44 98.0 °F /  36.7 °C 32.0 °F /  0 °C 29.9in /  1012.4hPa SW 9mph /  14.5km/h 7mph /  11.3km/h 10% 0.000in /  0mm 589.00 W/m2
16:49 98.0 °F /  36.7 °C 35.0 °F /  1.7 °C 29.9in /  1012.4hPa ENE 9mph /  14.5km/h 9mph /  14.5km/h 11% 0.000in /  0mm 577.00 W/m2
16:54 98.0 °F /  36.7 °C 32.0 °F /  0 °C 29.9in /  1012.4hPa SSW 7mph /  11.3km/h 7mph /  11.3km/h 10% 0.000in /  0mm 559.00 W/m2
16:59 98.0 °F /  36.7 °C 32.0 °F /  0 °C 29.9in /  1012.4hPa South 6mph /  9.7km/h 7mph /  11.3km/h 10% 0.000in /  0mm 545.00 W/m2
17:04 98.0 °F /  36.7 °C 30.0 °F /  -1.1 °C 29.9in /  1012.4hPa SSE 11mph /  17.7km/h 7mph /  11.3km/h 9% 0.000in /  0mm 529.00 W/m2
17:09 98.0 °F /  36.7 °C 35.0 °F /  1.7 °C 29.9in /  1012.4hPa East 6mph /  9.7km/h 10mph /  16.1km/h 11% 0.000in /  0mm 512.00 W/m2
17:14 98.0 °F /  36.7 °C 35.0 °F /  1.7 °C 29.9in /  1012.4hPa ESE 11mph /  17.7km/h 7mph /  11.3km/h 11% 0.000in /  0mm 496.00 W/m2
17:19 98.0 °F /  36.7 °C 37.0 °F /  2.8 °C 29.9in /  1012.4hPa South 8mph /  12.9km/h 10mph /  16.1km/h 12% 0.000in /  0mm 480.00 W/m2
17:24 98.0 °F /  36.7 °C 37.0 °F /  2.8 °C 29.9in /  1012.4hPa South 9mph /  14.5km/h 9mph /  14.5km/h 12% 0.000in /  0mm 464.00 W/m2
17:29 98.0 °F /  36.7 °C 37.0 °F /  2.8 °C 29.9in /  1012.4hPa SE 13mph /  20.9km/h 9mph /  14.5km/h 12% 0.000in /  0mm 448.00 W/m2
17:34 98.0 °F /  36.7 °C 37.0 °F /  2.8 °C 29.9in /  1012.4hPa South 9mph /  14.5km/h 13mph /  20.9km/h 12% 0.000in /  0mm 434.00 W/m2
17:39 98.0 °F /  36.7 °C 34.0 °F /  1.1 °C 29.9in /  1012.4hPa South 9mph /  14.5km/h 9mph /  14.5km/h 11% 0.000in /  0mm 417.00 W/m2
17:44 97.0 °F /  36.1 °C 34.0 °F /  1.1 °C 29.9in /  1012.4hPa SSE 9mph /  14.5km/h 9mph /  14.5km/h 11% 0.000in /  0mm 399.00 W/m2
17:49 97.0 °F /  36.1 °C 32.0 °F /  0 °C 29.9in /  1012.4hPa South 4mph /  6.4km/h 9mph /  14.5km/h 10% 0.000in /  0mm 385.00 W/m2
17:54 97.0 °F /  36.1 °C 31.0 °F /  -0.6 °C 29.9in /  1012.4hPa South 6mph /  9.7km/h 3mph /  4.8km/h 10% 0.000in /  0mm 371.00 W/m2
17:59 97.0 °F /  36.1 °C 33.0 °F /  0.6 °C 29.9in /  1012.4hPa SW 7mph /  11.3km/h 6mph /  9.7km/h 11% 0.000in /  0mm 153.00 W/m2
18:04 96.0 °F /  35.6 °C 33.0 °F /  0.6 °C 29.9in /  1012.4hPa SSW 2mph /  3.2km/h 7mph /  11.3km/h 11% 0.000in /  0mm 65.00 W/m2
18:09 96.0 °F /  35.6 °C 39.0 °F /  3.9 °C 29.9in /  1012.4hPa South 6mph /  9.7km/h 2mph /  3.2km/h 14% 0.000in /  0mm 58.00 W/m2
18:14 95.0 °F /  35 °C 37.0 °F /  2.8 °C 29.9in /  1012.4hPa SSE 4mph /  6.4km/h 6mph /  9.7km/h 13% 0.000in /  0mm 53.00 W/m2
18:19 95.0 °F /  35 °C 36.0 °F /  2.2 °C 29.9in /  1012.4hPa South 6mph /  9.7km/h 4mph /  6.4km/h 13% 0.000in /  0mm 46.00 W/m2
18:24 94.0 °F /  34.4 °C 35.0 °F /  1.7 °C 30.0in /  1015.8hPa SSW 6mph /  9.7km/h 6mph /  9.7km/h 13% 0.000in /  0mm 42.00 W/m2
18:29 93.0 °F /  33.9 °C 33.0 °F /  0.6 °C 30.0in /  1015.8hPa South 6mph /  9.7km/h 6mph /  9.7km/h 12% 0.000in /  0mm 40.00 W/m2
18:34 93.0 °F /  33.9 °C 37.0 °F /  2.8 °C 30.0in /  1015.8hPa SSW 4mph /  6.4km/h 6mph /  9.7km/h 14% 0.000in /  0mm 37.00 W/m2
18:39 93.0 °F /  33.9 °C 37.0 °F /  2.8 °C 30.0in /  1015.8hPa SSW 6mph /  9.7km/h 2mph /  3.2km/h 14% 0.000in /  0mm 33.00 W/m2
18:43 92.0 °F /  33.3 °C 34.0 °F /  1.1 °C 30.0in /  1015.8hPa SSW 6mph /  9.7km/h 6mph /  9.7km/h 13% 0.000in /  0mm 51.00 W/m2
18:49 92.0 °F /  33.3 °C 34.0 °F /  1.1 °C 30.0in /  1015.8hPa SE 7mph /  11.3km/h 3mph /  4.8km/h 13% 0.000in /  0mm 40.00 W/m2
18:54 92.0 °F /  33.3 °C 32.0 °F /  0 °C 30.0in /  1015.8hPa ESE 2mph /  3.2km/h 7mph /  11.3km/h 12% 0.000in /  0mm 47.00 W/m2
18:59 92.0 °F /  33.3 °C 32.0 °F /  0 °C 30.0in /  1015.8hPa SE 4mph /  6.4km/h 2mph /  3.2km/h 12% 0.000in /  0mm 62.00 W/m2
19:04 92.0 °F /  33.3 °C 32.0 °F /  0 °C 30.0in /  1015.8hPa WSW 6mph /  9.7km/h 3mph /  4.8km/h 12% 0.000in /  0mm 88.00 W/m2
19:09 91.0 °F /  32.8 °C 37.0 °F /  2.8 °C 30.0in /  1015.8hPa West 2mph /  3.2km/h 6mph /  9.7km/h 15% 0.000in /  0mm 44.00 W/m2
19:14 91.0 °F /  32.8 °C 40.0 °F /  4.4 °C 30.0in /  1015.8hPa SSW 6mph /  9.7km/h 2mph /  3.2km/h 17% 0.000in /  0mm 21.00 W/m2
19:19 91.0 °F /  32.8 °C 33.0 °F /  0.6 °C 30.0in /  1015.8hPa South 4mph /  6.4km/h 6mph /  9.7km/h 13% 0.000in /  0mm 19.00 W/m2
19:24 90.0 °F /  32.2 °C 38.0 °F /  3.3 °C 30.0in /  1015.8hPa SSW 4mph /  6.4km/h 3mph /  4.8km/h 16% 0.000in /  0mm 18.00 W/m2
19:29 90.0 °F /  32.2 °C 37.0 °F /  2.8 °C 30.0in /  1015.8hPa SSW 4mph /  6.4km/h 3mph /  4.8km/h 16% 0.000in /  0mm 16.00 W/m2
19:34 89.0 °F /  31.7 °C 36.0 °F /  2.2 °C 30.0in /  1015.8hPa SSW 4mph /  6.4km/h 3mph /  4.8km/h 15% 0.000in /  0mm 14.00 W/m2
19:39 89.0 °F /  31.7 °C 38.0 °F /  3.3 °C 30.0in /  1015.8hPa South 4mph /  6.4km/h 2mph /  3.2km/h 17% 0.000in /  0mm 12.00 W/m2
19:44 89.0 °F /  31.7 °C 37.0 °F /  2.8 °C 30.0in /  1015.8hPa South 4mph /  6.4km/h 3mph /  4.8km/h 16% 0.000in /  0mm 12.00 W/m2
19:49 88.0 °F /  31.1 °C 36.0 °F /  2.2 °C 30.0in /  1015.8hPa Calm   3mph /  4.8km/h 16% 0.000in /  0mm 11.00 W/m2
19:54 88.0 °F /  31.1 °C 38.0 °F /  3.3 °C 30.0in /  1015.8hPa South 4mph /  6.4km/h 2mph /  3.2km/h 17% 0.000in /  0mm 11.00 W/m2
19:59 88.0 °F /  31.1 °C 39.0 °F /  3.9 °C 30.0in /  1015.8hPa South 2mph /  3.2km/h 3mph /  4.8km/h 18% 0.000in /  0mm 9.00 W/m2
20:04 87.0 °F /  30.6 °C 38.0 °F /  3.3 °C 30.0in /  1015.8hPa Calm   2mph /  3.2km/h 18% 0.000in /  0mm 9.00 W/m2
20:09 87.0 °F /  30.6 °C 38.0 °F /  3.3 °C 30.0in /  1015.8hPa South 2mph /  3.2km/h   18% 0.000in /  0mm 7.00 W/m2
20:14 87.0 °F /  30.6 °C 39.0 °F /  3.9 °C 30.0in /  1015.8hPa South 2mph /  3.2km/h 2mph /  3.2km/h 19% 0.000in /  0mm 5.00 W/m2
20:19 86.0 °F /  30 °C 36.0 °F /  2.2 °C 30.0in /  1015.8hPa Calm   2mph /  3.2km/h 17% 0.000in /  0mm 5.00 W/m2
20:24 86.0 °F /  30 °C 37.0 °F /  2.8 °C 30.0in /  1015.8hPa Calm     18% 0.000in /  0mm 0.00 W/m2
20:28 86.0 °F /  30 °C 37.0 °F /  2.8 °C 30.0in /  1015.8hPa Calm     18% 0.000in /  0mm 0.00 W/m2
El Dorado Weather
Compliments of Weather Underground - 2 mb